MTN8233 TISX-TJSJ
Flight info
| Callsign | MTN8233 |
|---|---|
| Flight time | 0h 43m |
| Altitude | 8000 |
| Route | HMLTN9 CHAKA DCT SNGRA DCT REKUA DCT SJU |
| Aircraft | C208/L-SDFGR/C |
Departure
| Time | 2026-04-29 23:13 |
|---|---|
| Airport | Henry E. Rohlsen Airport (TISX) |
Arrival
| Time | 2026-04-29 23:56 |
|---|---|
| Airport | Luis Munoz Marin International Airport (TJSJ) |
| Time | Latitude | Longitude | Altitude | Speed | Heading |
|---|---|---|---|---|---|
| 2026-04-29 23:02 | 17.70038 | -64.79270 | 30 ft | 0 kts | 171° |
| 2026-04-29 23:08 | 17.70030 | -64.79303 | 40 ft | 12 kts | 284° |
| 2026-04-29 23:08 | 17.70084 | -64.79339 | 41 ft | 10 kts | 326° |
| 2026-04-29 23:09 | 17.70094 | -64.79417 | 42 ft | 16 kts | 262° |
| 2026-04-29 23:09 | 17.70081 | -64.79551 | 44 ft | 19 kts | 265° |
| 2026-04-29 23:09 | 17.70067 | -64.79685 | 47 ft | 18 kts | 264° |
| 2026-04-29 23:09 | 17.70055 | -64.79822 | 49 ft | 21 kts | 265° |
| 2026-04-29 23:10 | 17.70038 | -64.79994 | 51 ft | 26 kts | 265° |
| 2026-04-29 23:10 | 17.70017 | -64.80195 | 52 ft | 29 kts | 263° |
| 2026-04-29 23:10 | 17.69995 | -64.80405 | 59 ft | 28 kts | 264° |
| 2026-04-29 23:10 | 17.69973 | -64.80604 | 63 ft | 28 kts | 264° |
| 2026-04-29 23:11 | 17.69954 | -64.80809 | 67 ft | 29 kts | 263° |
| 2026-04-29 23:11 | 17.69933 | -64.81019 | 71 ft | 29 kts | 264° |
| 2026-04-29 23:11 | 17.69910 | -64.81229 | 75 ft | 29 kts | 263° |
| 2026-04-29 23:11 | 17.69888 | -64.81434 | 75 ft | 25 kts | 264° |
| 2026-04-29 23:12 | 17.69879 | -64.81558 | 80 ft | 13 kts | 271° |
| 2026-04-29 23:12 | 17.69921 | -64.81604 | 81 ft | 9 kts | 348° |
| 2026-04-29 23:12 | 17.69989 | -64.81609 | 82 ft | 10 kts | 17° |
| 2026-04-29 23:12 | 17.70017 | -64.81539 | 80 ft | 19 kts | 83° |
| 2026-04-29 23:13 | 17.70053 | -64.81152 | 76 ft | 82 kts | 85° |
| 2026-04-29 23:13 | 17.70146 | -64.80463 | 236 ft | 97 kts | 81° |
| 2026-04-29 23:13 | 17.70243 | -64.79769 | 533 ft | 96 kts | 84° |
| 2026-04-29 23:13 | 17.70344 | -64.79078 | 796 ft | 94 kts | 82° |
| 2026-04-29 23:14 | 17.70484 | -64.78387 | 952 ft | 99 kts | 87° |
| 2026-04-29 23:14 | 17.70147 | -64.77923 | 1356 ft | 78 kts | 153° |
| 2026-04-29 23:14 | 17.69941 | -64.77475 | 1557 ft | 87 kts | 83° |
| 2026-04-29 23:14 | 17.69935 | -64.76851 | 1860 ft | 83 kts | 74° |
| 2026-04-29 23:15 | 17.70213 | -64.76324 | 2140 ft | 82 kts | 71° |
| 2026-04-29 23:15 | 17.70469 | -64.75750 | 2334 ft | 94 kts | 63° |
| 2026-04-29 23:15 | 17.70786 | -64.75096 | 2511 ft | 107 kts | 64° |
| 2026-04-29 23:15 | 17.71162 | -64.74370 | 2672 ft | 118 kts | 64° |
| 2026-04-29 23:16 | 17.71568 | -64.73595 | 2833 ft | 124 kts | 63° |
| 2026-04-29 23:16 | 17.71986 | -64.72812 | 3098 ft | 122 kts | 62° |
| 2026-04-29 23:16 | 17.72470 | -64.72085 | 3336 ft | 123 kts | 44° |
| 2026-04-29 23:16 | 17.73240 | -64.71682 | 3578 ft | 127 kts | 17° |
| 2026-04-29 23:17 | 17.74125 | -64.71705 | 3813 ft | 131 kts | 347° |
| 2026-04-29 23:17 | 17.74904 | -64.72200 | 4053 ft | 134 kts | 316° |
| 2026-04-29 23:17 | 17.75452 | -64.72985 | 4298 ft | 133 kts | 308° |
| 2026-04-29 23:17 | 17.76005 | -64.73759 | 4546 ft | 133 kts | 308° |
| 2026-04-29 23:18 | 17.76546 | -64.74546 | 4789 ft | 133 kts | 307° |
| 2026-04-29 23:18 | 17.77090 | -64.75335 | 5031 ft | 133 kts | 307° |
| 2026-04-29 23:18 | 17.77635 | -64.76127 | 5270 ft | 134 kts | 308° |
| 2026-04-29 23:18 | 17.78187 | -64.76916 | 5513 ft | 135 kts | 309° |
| 2026-04-29 23:19 | 17.78737 | -64.77713 | 5757 ft | 135 kts | 308° |
| 2026-04-29 23:19 | 17.79289 | -64.78513 | 6002 ft | 135 kts | 308° |
| 2026-04-29 23:19 | 17.79840 | -64.79312 | 6245 ft | 135 kts | 308° |
| 2026-04-29 23:19 | 17.80392 | -64.80108 | 6486 ft | 135 kts | 308° |
| 2026-04-29 23:20 | 17.80941 | -64.80903 | 6714 ft | 134 kts | 308° |
| 2026-04-29 23:20 | 17.81490 | -64.81697 | 6947 ft | 134 kts | 307° |
| 2026-04-29 23:20 | 17.82036 | -64.82489 | 7178 ft | 134 kts | 308° |
| 2026-04-29 23:20 | 17.82579 | -64.83275 | 7418 ft | 133 kts | 308° |
| 2026-04-29 23:21 | 17.83119 | -64.84056 | 7648 ft | 132 kts | 308° |
| 2026-04-29 23:21 | 17.83656 | -64.84833 | 7887 ft | 131 kts | 307° |
| 2026-04-29 23:21 | 17.84202 | -64.85625 | 8006 ft | 141 kts | 307° |
| 2026-04-29 23:21 | 17.84799 | -64.86480 | 8016 ft | 153 kts | 308° |
| 2026-04-29 23:22 | 17.85443 | -64.87408 | 8016 ft | 161 kts | 307° |
| 2026-04-29 23:22 | 17.86111 | -64.88375 | 8012 ft | 166 kts | 307° |
| 2026-04-29 23:22 | 17.86794 | -64.89364 | 8014 ft | 168 kts | 307° |
| 2026-04-29 23:22 | 17.87484 | -64.90365 | 8010 ft | 170 kts | 307° |
| 2026-04-29 23:23 | 17.88178 | -64.91371 | 8012 ft | 171 kts | 307° |
| 2026-04-29 23:23 | 17.88875 | -64.92381 | 8008 ft | 171 kts | 307° |
| 2026-04-29 23:23 | 17.89572 | -64.93392 | 8012 ft | 171 kts | 307° |
| 2026-04-29 23:23 | 17.90270 | -64.94404 | 8007 ft | 171 kts | 307° |
| 2026-04-29 23:24 | 17.90968 | -64.95417 | 8007 ft | 171 kts | 307° |
| 2026-04-29 23:24 | 17.91667 | -64.96430 | 8010 ft | 171 kts | 307° |
| 2026-04-29 23:24 | 17.92366 | -64.97442 | 8002 ft | 171 kts | 307° |
| 2026-04-29 23:24 | 17.93063 | -64.98455 | 8005 ft | 171 kts | 307° |
| 2026-04-29 23:25 | 17.93760 | -64.99467 | 8008 ft | 171 kts | 307° |
| 2026-04-29 23:25 | 17.94459 | -65.00480 | 8001 ft | 171 kts | 307° |
| 2026-04-29 23:25 | 17.95156 | -65.01492 | 8002 ft | 171 kts | 307° |
| 2026-04-29 23:25 | 17.95853 | -65.02505 | 8006 ft | 171 kts | 307° |
| 2026-04-29 23:26 | 17.96552 | -65.03518 | 8002 ft | 171 kts | 307° |
| 2026-04-29 23:26 | 17.97249 | -65.04531 | 8003 ft | 171 kts | 307° |
| 2026-04-29 23:26 | 17.97946 | -65.05544 | 8002 ft | 171 kts | 307° |
| 2026-04-29 23:26 | 17.98643 | -65.06557 | 7999 ft | 171 kts | 307° |
| 2026-04-29 23:27 | 17.99340 | -65.07569 | 8001 ft | 171 kts | 307° |
| 2026-04-29 23:27 | 18.00036 | -65.08579 | 8000 ft | 171 kts | 307° |
| 2026-04-29 23:27 | 18.00733 | -65.09592 | 7996 ft | 171 kts | 307° |
| 2026-04-29 23:27 | 18.01427 | -65.10601 | 8000 ft | 171 kts | 307° |
| 2026-04-29 23:28 | 18.02111 | -65.11595 | 7999 ft | 171 kts | 307° |
| 2026-04-29 23:28 | 18.02805 | -65.12605 | 8001 ft | 170 kts | 307° |
| 2026-04-29 23:28 | 18.03500 | -65.13615 | 8002 ft | 171 kts | 307° |
| 2026-04-29 23:28 | 18.04195 | -65.14626 | 8002 ft | 171 kts | 307° |
| 2026-04-29 23:29 | 18.04899 | -65.15650 | 8000 ft | 171 kts | 307° |
| 2026-04-29 23:29 | 18.05584 | -65.16647 | 8001 ft | 170 kts | 307° |
| 2026-04-29 23:29 | 18.06278 | -65.17656 | 8000 ft | 170 kts | 307° |
| 2026-04-29 23:29 | 18.06971 | -65.18665 | 8001 ft | 170 kts | 307° |
| 2026-04-29 23:30 | 18.07664 | -65.19674 | 8002 ft | 170 kts | 307° |
| 2026-04-29 23:30 | 18.08357 | -65.20683 | 8002 ft | 170 kts | 307° |
| 2026-04-29 23:30 | 18.09050 | -65.21692 | 7996 ft | 170 kts | 307° |
| 2026-04-29 23:30 | 18.09743 | -65.22700 | 8003 ft | 170 kts | 306° |
| 2026-04-29 23:31 | 18.10436 | -65.23709 | 8003 ft | 170 kts | 307° |
| 2026-04-29 23:31 | 18.11128 | -65.24717 | 8002 ft | 170 kts | 307° |
| 2026-04-29 23:31 | 18.11819 | -65.25725 | 8002 ft | 170 kts | 307° |
| 2026-04-29 23:31 | 18.12512 | -65.26733 | 8001 ft | 170 kts | 307° |
| 2026-04-29 23:32 | 18.13203 | -65.27741 | 8000 ft | 170 kts | 306° |
| 2026-04-29 23:32 | 18.13896 | -65.28750 | 8001 ft | 170 kts | 307° |
| 2026-04-29 23:32 | 18.14587 | -65.29758 | 8001 ft | 170 kts | 307° |
| 2026-04-29 23:32 | 18.15278 | -65.30766 | 8004 ft | 170 kts | 307° |
| 2026-04-29 23:33 | 18.15969 | -65.31774 | 8002 ft | 170 kts | 307° |
| 2026-04-29 23:33 | 18.16660 | -65.32781 | 8005 ft | 170 kts | 307° |
| 2026-04-29 23:33 | 18.17350 | -65.33787 | 8005 ft | 170 kts | 307° |
| 2026-04-29 23:33 | 18.18038 | -65.34792 | 8002 ft | 169 kts | 307° |
| 2026-04-29 23:34 | 18.18728 | -65.35798 | 8001 ft | 170 kts | 306° |
| 2026-04-29 23:34 | 18.19417 | -65.36804 | 8003 ft | 170 kts | 306° |
| 2026-04-29 23:34 | 18.20106 | -65.37810 | 8003 ft | 170 kts | 307° |
| 2026-04-29 23:34 | 18.20796 | -65.38816 | 8001 ft | 170 kts | 306° |
| 2026-04-29 23:35 | 18.21485 | -65.39822 | 8005 ft | 169 kts | 306° |
| 2026-04-29 23:35 | 18.22174 | -65.40827 | 8003 ft | 170 kts | 306° |
| 2026-04-29 23:35 | 18.22863 | -65.41834 | 8004 ft | 169 kts | 306° |
| 2026-04-29 23:35 | 18.23552 | -65.42840 | 7964 ft | 170 kts | 307° |
| 2026-04-29 23:36 | 18.24252 | -65.43860 | 7843 ft | 174 kts | 307° |
| 2026-04-29 23:36 | 18.24965 | -65.44902 | 7730 ft | 177 kts | 307° |
| 2026-04-29 23:36 | 18.25682 | -65.45949 | 7622 ft | 180 kts | 307° |
| 2026-04-29 23:36 | 18.26418 | -65.47022 | 7503 ft | 181 kts | 307° |
| 2026-04-29 23:37 | 18.27157 | -65.48102 | 7387 ft | 182 kts | 307° |
| 2026-04-29 23:37 | 18.27896 | -65.49185 | 7270 ft | 182 kts | 307° |
| 2026-04-29 23:37 | 18.28637 | -65.50266 | 7150 ft | 182 kts | 307° |
| 2026-04-29 23:37 | 18.29374 | -65.51345 | 7032 ft | 180 kts | 307° |
| 2026-04-29 23:38 | 18.30102 | -65.52411 | 6909 ft | 179 kts | 307° |
| 2026-04-29 23:38 | 18.30828 | -65.53472 | 6780 ft | 179 kts | 307° |
| 2026-04-29 23:38 | 18.31560 | -65.54541 | 6564 ft | 181 kts | 307° |
| 2026-04-29 23:38 | 18.32294 | -65.55615 | 6387 ft | 180 kts | 307° |
| 2026-04-29 23:39 | 18.33016 | -65.56674 | 6260 ft | 177 kts | 307° |
| 2026-04-29 23:39 | 18.33729 | -65.57722 | 6134 ft | 177 kts | 307° |
| 2026-04-29 23:39 | 18.34454 | -65.58785 | 6017 ft | 180 kts | 307° |
| 2026-04-29 23:39 | 18.35179 | -65.59845 | 6008 ft | 177 kts | 307° |
| 2026-04-29 23:40 | 18.35890 | -65.60887 | 6005 ft | 174 kts | 307° |
| 2026-04-29 23:40 | 18.36595 | -65.61920 | 6000 ft | 173 kts | 307° |
| 2026-04-29 23:40 | 18.37257 | -65.62972 | 5995 ft | 172 kts | 296° |
| 2026-04-29 23:40 | 18.37545 | -65.64192 | 5994 ft | 172 kts | 281° |
| 2026-04-29 23:41 | 18.37794 | -65.65421 | 5996 ft | 172 kts | 283° |
| 2026-04-29 23:41 | 18.38052 | -65.66650 | 5994 ft | 172 kts | 283° |
| 2026-04-29 23:41 | 18.38304 | -65.67880 | 5994 ft | 172 kts | 283° |
| 2026-04-29 23:41 | 18.38554 | -65.69111 | 5996 ft | 172 kts | 283° |
| 2026-04-29 23:42 | 18.38806 | -65.70344 | 5996 ft | 172 kts | 283° |
| 2026-04-29 23:42 | 18.39057 | -65.71577 | 5995 ft | 172 kts | 283° |
| 2026-04-29 23:42 | 18.39308 | -65.72809 | 5996 ft | 172 kts | 283° |
| 2026-04-29 23:42 | 18.39560 | -65.74040 | 5997 ft | 172 kts | 283° |
| 2026-04-29 23:43 | 18.39810 | -65.75269 | 5997 ft | 172 kts | 283° |
| 2026-04-29 23:43 | 18.40016 | -65.76506 | 5990 ft | 172 kts | 272° |
| 2026-04-29 23:43 | 18.39820 | -65.77741 | 5994 ft | 171 kts | 258° |
| 2026-04-29 23:43 | 18.39591 | -65.78975 | 5998 ft | 172 kts | 260° |
| 2026-04-29 23:44 | 18.39366 | -65.80211 | 5999 ft | 172 kts | 259° |
| 2026-04-29 23:44 | 18.39136 | -65.81448 | 5999 ft | 172 kts | 259° |
| 2026-04-29 23:44 | 18.38906 | -65.82685 | 5955 ft | 174 kts | 259° |
| 2026-04-29 23:44 | 18.38673 | -65.83949 | 5831 ft | 176 kts | 259° |
| 2026-04-29 23:45 | 18.38436 | -65.85221 | 5711 ft | 178 kts | 259° |
| 2026-04-29 23:45 | 18.38197 | -65.86499 | 5591 ft | 179 kts | 259° |
| 2026-04-29 23:45 | 18.37958 | -65.87783 | 5472 ft | 179 kts | 259° |
| 2026-04-29 23:45 | 18.37717 | -65.89071 | 5350 ft | 179 kts | 259° |
| 2026-04-29 23:46 | 18.37558 | -65.89924 | 5272 ft | 179 kts | 259° |
| 2026-04-29 23:46 | 18.37318 | -65.91211 | 5153 ft | 179 kts | 259° |
| 2026-04-29 23:46 | 18.37078 | -65.92500 | 5030 ft | 179 kts | 259° |
| 2026-04-29 23:46 | 18.36760 | -65.94205 | 4876 ft | 179 kts | 259° |
| 2026-04-29 23:47 | 18.36518 | -65.95494 | 4753 ft | 180 kts | 259° |
| 2026-04-29 23:47 | 18.36355 | -65.96366 | 4672 ft | 180 kts | 259° |
| 2026-04-29 23:47 | 18.36134 | -65.97660 | 4547 ft | 179 kts | 265° |
| 2026-04-29 23:47 | 18.36130 | -65.98970 | 4428 ft | 179 kts | 272° |
| 2026-04-29 23:48 | 18.36159 | -66.00278 | 4304 ft | 179 kts | 272° |
| 2026-04-29 23:48 | 18.36190 | -66.01587 | 4177 ft | 179 kts | 271° |
| 2026-04-29 23:48 | 18.36225 | -66.02895 | 4057 ft | 179 kts | 271° |
| 2026-04-29 23:48 | 18.36261 | -66.04195 | 4006 ft | 176 kts | 272° |
| 2026-04-29 23:49 | 18.36295 | -66.05477 | 4007 ft | 175 kts | 272° |
| 2026-04-29 23:49 | 18.36329 | -66.06736 | 4005 ft | 174 kts | 272° |
| 2026-04-29 23:49 | 18.36365 | -66.08012 | 4004 ft | 174 kts | 272° |
| 2026-04-29 23:49 | 18.36398 | -66.09287 | 4004 ft | 174 kts | 272° |
| 2026-04-29 23:50 | 18.36435 | -66.10566 | 3843 ft | 177 kts | 272° |
| 2026-04-29 23:50 | 18.36476 | -66.11864 | 3600 ft | 177 kts | 272° |
| 2026-04-29 23:50 | 18.36556 | -66.14450 | 3120 ft | 177 kts | 272° |
| 2026-04-29 23:51 | 18.36599 | -66.15743 | 2871 ft | 176 kts | 272° |
| 2026-04-29 23:51 | 18.36811 | -66.17004 | 2631 ft | 178 kts | 298° |
| 2026-04-29 23:51 | 18.37731 | -66.17825 | 2393 ft | 177 kts | 343° |
| 2026-04-29 23:51 | 18.38939 | -66.17996 | 2159 ft | 175 kts | 357° |
| 2026-04-29 23:52 | 18.40148 | -66.18061 | 2004 ft | 169 kts | 9° |
| 2026-04-29 23:52 | 18.41095 | -66.17464 | 1997 ft | 161 kts | 57° |
| 2026-04-29 23:52 | 18.41463 | -66.16359 | 2009 ft | 161 kts | 77° |
| 2026-04-29 23:52 | 18.41744 | -66.15208 | 2011 ft | 163 kts | 76° |
| 2026-04-29 23:53 | 18.42031 | -66.14047 | 2009 ft | 164 kts | 77° |
| 2026-04-29 23:53 | 18.42316 | -66.12884 | 2000 ft | 164 kts | 77° |
| 2026-04-29 23:53 | 18.42602 | -66.11722 | 2007 ft | 163 kts | 77° |
| 2026-04-29 23:53 | 18.42885 | -66.10565 | 2004 ft | 163 kts | 76° |
| 2026-04-29 23:54 | 18.43165 | -66.09405 | 2003 ft | 163 kts | 76° |
| 2026-04-29 23:54 | 18.43444 | -66.08246 | 2002 ft | 163 kts | 77° |
| 2026-04-29 23:54 | 18.43720 | -66.07081 | 1956 ft | 166 kts | 80° |
| 2026-04-29 23:54 | 18.43679 | -66.05842 | 1567 ft | 165 kts | 101° |
| 2026-04-29 23:55 | 18.43461 | -66.04759 | 1214 ft | 139 kts | 102° |
| 2026-04-29 23:55 | 18.43350 | -66.03785 | 805 ft | 128 kts | 87° |
| 2026-04-29 23:55 | 18.43360 | -66.02944 | 480 ft | 100 kts | 89° |
| 2026-04-29 23:55 | 18.43366 | -66.02261 | 222 ft | 89 kts | 91° |
| 2026-04-29 23:56 | 18.43371 | -66.01626 | 105 ft | 86 kts | 91° |
| 2026-04-29 23:56 | 18.43363 | -66.01009 | 23 ft | 80 kts | 90° |
| 2026-04-29 23:56 | 18.43358 | -66.00490 | 16 ft | 55 kts | 92° |
| 2026-04-29 23:56 | 18.43355 | -66.00201 | 16 ft | 34 kts | 90° |
| 2026-04-29 23:57 | 18.43357 | -65.99988 | 19 ft | 27 kts | 91° |
| 2026-04-29 23:57 | 18.43354 | -65.99773 | 19 ft | 31 kts | 91° |
| 2026-04-29 23:57 | 18.43369 | -65.99597 | 20 ft | 16 kts | 69° |
| 2026-04-29 23:57 | 18.43429 | -65.99545 | 19 ft | 12 kts | 360° |
| 2026-04-29 23:58 | 18.43538 | -65.99543 | 18 ft | 17 kts | 5° |
| 2026-04-29 23:58 | 18.43650 | -65.99507 | 18 ft | 14 kts | 11° |
| 2026-04-29 23:58 | 18.43720 | -65.99498 | 17 ft | 7 kts | 56° |
| 2026-04-29 23:58 | 18.43729 | -65.99446 | 17 ft | 7 kts | 83° |
| 2026-04-29 23:59 | 18.43730 | -65.99436 | 17 ft | 1 kts | 98° |
| 2026-04-29 23:59 | 18.43719 | -65.99428 | 17 ft | 0 kts | 179° |